Time;durP1;ratioP1;P1;durP2;ratioP2;P2;SDS_P1;SDS_P2;PMS_P1;PMS_P2;Temp;Humidity;BMP_temperature;BMP_pressure;BME280_temperature;BME280_humidity;BME280_pressure;Samples;Min_cycle;Max_cycle;Signal;HPM_P1;HPM_P2
2021/09/24 00:01:32;;;;;;;27.85;3.75;;;;;;;;;;4982320;28;20026;-65
2021/09/24 00:03:58;;;;;;;25.90;3.38;;;;;;;;;;4979934;28;20062;-65
2021/09/24 00:06:24;;;;;;;30.05;3.58;;;;;;;;;;4981438;28;20026;-65
2021/09/24 00:08:50;;;;;;;29.83;3.75;;;;;;;;;;4979733;28;20561;-65
2021/09/24 00:11:16;;;;;;;25.25;3.40;;;;;;;;;;4979582;28;20760;-65
2021/09/24 00:13:42;;;;;;;28.27;3.78;;;;;;;;;;4981451;28;20776;-65
2021/09/24 00:16:08;;;;;;;26.85;3.17;;;;;;;;;;4980969;28;20096;-65
2021/09/24 00:18:34;;;;;;;29.27;4.50;;;;;;;;;;4980825;28;20548;-65
2021/09/24 00:21:00;;;;;;;25.13;3.05;;;;;;;;;;4981053;28;20041;-65
2021/09/24 00:23:26;;;;;;;30.98;3.25;;;;;;;;;;4979317;28;20026;-65
2021/09/24 00:25:52;;;;;;;24.02;3.08;;;;;;;;;;4980943;28;20088;-65
2021/09/24 00:28:18;;;;;;;19.40;2.95;;;;;;;;;;4980555;28;20054;-65
2021/09/24 00:30:44;;;;;;;26.23;3.08;;;;;;;;;;4979557;28;20114;-65
2021/09/24 00:33:10;;;;;;;32.67;4.38;;;;;;;;;;4980595;28;20033;-64
2021/09/24 00:35:36;;;;;;;26.25;3.70;;;;;;;;;;4980724;28;20062;-65
2021/09/24 00:38:02;;;;;;;34.15;4.20;;;;;;;;;;4980560;28;20038;-65
2021/09/24 00:40:31;;;;;;;29.00;3.70;;;;;;;;;;4979266;28;20046;-65
2021/09/24 00:42:57;;;;;;;30.23;3.60;;;;;;;;;;4981120;28;20038;-65
2021/09/24 00:45:23;;;;;;;29.75;3.50;;;;;;;;;;4980513;28;20030;-65
2021/09/24 00:47:51;;;;;;;27.75;4.15;;;;;;;;;;4979385;28;20101;-65
2021/09/24 00:50:17;;;;;;;32.65;3.50;;;;;;;;;;4980889;28;20034;-65
2021/09/24 00:52:43;;;;;;;32.03;3.90;;;;;;;;;;4980014;28;20710;-65
2021/09/24 00:55:09;;;;;;;23.77;3.97;;;;;;;;;;4979527;28;20034;-65
2021/09/24 00:57:35;;;;;;;29.13;4.32;;;;;;;;;;4980357;28;20160;-65
2021/09/24 01:00:01;;;;;;;23.48;3.50;;;;;;;;;;4980295;28;20038;-65
2021/09/24 01:02:27;;;;;;;31.52;3.83;;;;;;;;;;4980523;28;20636;-65
2021/09/24 01:04:53;;;;;;;28.38;3.10;;;;;;;;;;4980657;28;20108;-65
2021/09/24 01:07:19;;;;;;;22.52;3.17;;;;;;;;;;4978801;28;20629;-65
2021/09/24 01:09:44;;;;;;;26.23;3.53;;;12.50;99.90;;;;;;4979906;28;20034;-65
2021/09/24 01:12:10;;;;;;;28.02;4.20;;;;;;;;;;4980792;28;20045;-65
2021/09/24 01:14:36;;;;;;;35.97;4.70;;;;;;;;;;4979838;28;20099;-68
2021/09/24 01:17:02;;;;;;;28.83;4.22;;;;;;;;;;4980373;28;20108;-68
2021/09/24 01:19:28;;;;;;;32.85;4.63;;;;;;;;;;4979018;28;20034;-68
2021/09/24 01:21:54;;;;;;;25.83;3.83;;;;;;;;;;4980152;28;20050;-68
2021/09/24 01:24:20;;;;;;;30.65;3.40;;;;;;;;;;4981074;28;20070;-68
2021/09/24 01:26:46;;;;;;;35.83;3.75;;;;;;;;;;4980756;28;20030;-68
2021/09/24 01:29:12;;;;;;;29.52;3.53;;;;;;;;;;4978617;28;20031;-68
2021/09/24 01:31:38;;;;;;;24.40;3.80;;;;;;;;;;4980895;28;20038;-67
2021/09/24 01:34:04;;;;;;;39.65;3.75;;;12.80;99.90;;;;;;4979663;28;20046;-68
2021/09/24 01:36:30;;;;;;;41.53;5.43;;;;;;;;;;4978992;28;20065;-68
2021/09/24 01:38:56;;;;;;;32.08;4.28;;;;;;;;;;4979956;28;20037;-68
2021/09/24 01:41:22;;;;;;;35.42;4.97;;;;;;;;;;4980463;28;20653;-68
2021/09/24 01:43:48;;;;;;;48.38;5.53;;;;;;;;;;4978333;28;20037;-68
2021/09/24 01:46:14;;;;;;;26.52;3.72;;;;;;;;;;4980695;28;20030;-68
2021/09/24 01:48:40;;;;;;;27.88;3.60;;;;;;;;;;4980227;28;20901;-68
2021/09/24 01:51:05;;;;;;;29.73;3.80;;;13.10;99.90;;;;;;4979568;28;20034;-68
2021/09/24 01:53:31;;;;;;;32.40;3.47;;;;;;;;;;4980247;28;20038;-67
2021/09/24 01:55:57;;;;;;;28.08;3.05;;;13.10;99.90;;;;;;4980020;28;20037;-68
2021/09/24 01:58:23;;;;;;;26.23;3.15;;;;;;;;;;4978696;28;20573;-68
2021/09/24 02:00:49;;;;;;;30.00;3.97;;;;;;;;;;4984962;28;20073;-68
2021/09/24 02:03:15;;;;;;;26.48;3.15;;;;;;;;;;4980310;28;20514;-68
2021/09/24 02:05:41;;;;;;;31.83;3.80;;;;;;;;;;4981671;28;20062;-68
2021/09/24 02:08:07;;;;;;;21.48;3.85;;;;;;;;;;4979261;28;20085;-68
2021/09/24 02:10:32;;;;;;;36.83;3.80;;;12.50;99.90;;;;;;4978389;28;20143;-68
2021/09/24 02:13:01;;;;;;;34.75;4.82;;;;;;;;;;4979528;28;20514;-68
2021/09/24 02:15:27;;;;;;;24.70;3.17;;;;;;;;;;4978877;28;20117;-67
2021/09/24 02:17:53;;;;;;;29.23;4.13;;;;;;;;;;4982133;28;20073;-68
2021/09/24 02:20:19;;;;;;;47.92;7.45;;;;;;;;;;4978876;28;20113;-68
2021/09/24 02:22:45;;;;;;;25.80;3.97;;;;;;;;;;4979817;28;20058;-68
2021/09/24 02:25:11;;;;;;;27.67;4.35;;;13.60;99.90;;;;;;4979549;28;20109;-68
2021/09/24 02:27:36;;;;;;;31.63;3.67;;;13.30;99.90;;;;;;4977926;28;20118;-68
2021/09/24 02:30:02;;;;;;;38.78;4.05;;;;;;;;;;4978017;28;20068;-68
2021/09/24 02:32:28;;;;;;;19.02;3.15;;;;;;;;;;4979473;28;20450;-68
2021/09/24 02:34:54;;;;;;;34.80;3.92;;;;;;;;;;4978903;28;20034;-68
2021/09/24 02:37:20;;;;;;;39.28;4.43;;;13.20;99.90;;;;;;4978734;28;20553;-68
2021/09/24 02:39:45;;;;;;;36.03;3.88;;;12.80;99.90;;;;;;4979531;28;20599;-68
2021/09/24 02:42:11;;;;;;;32.15;4.60;;;;;;;;;;4978398;28;20058;-68
2021/09/24 02:44:37;;;;;;;27.23;3.25;;;12.90;99.90;;;;;;4979561;28;20027;-68
2021/09/24 02:47:03;;;;;;;28.85;3.47;;;;;;;;;;4977882;28;20035;-68
2021/09/24 02:49:29;;;;;;;32.22;4.03;;;;;;;;;;4980116;28;20481;-68
2021/09/24 02:51:55;;;;;;;33.10;4.10;;;;;;;;;;4981642;28;20034;-68
2021/09/24 02:54:21;;;;;;;27.70;3.95;;;;;;;;;;4983152;28;20062;-68
2021/09/24 02:56:47;;;;;;;24.20;3.40;;;;;;;;;;4982467;28;20157;-68
2021/09/24 02:59:13;;;;;;;28.40;3.85;;;;;;;;;;4982605;28;20401;-68
2021/09/24 03:01:39;;;;;;;32.58;4.55;;;;;;;;;;4981471;28;20027;-68
2021/09/24 03:04:05;;;;;;;29.25;3.75;;;;;;;;;;4982442;28;20136;-68
2021/09/24 03:06:31;;;;;;;37.22;5.03;;;;;;;;;;4982366;28;20659;-68
2021/09/24 03:08:57;;;;;;;36.42;4.00;;;;;;;;;;4982314;28;20590;-68
2021/09/24 03:11:23;;;;;;;27.17;3.65;;;;;;;;;;4981855;28;20026;-68
2021/09/24 03:13:48;;;;;;;36.97;4.75;;;12.60;99.90;;;;;;4983515;28;20042;-68
2021/09/24 03:16:19;;;;;;;29.23;3.30;;;;;;;;;;4984371;28;20035;-68
2021/09/24 03:18:44;;;;;;;34.90;5.55;;;12.10;99.90;;;;;;4983073;28;20049;-68
2021/09/24 03:21:10;;;;;;;33.13;4.68;;;;;;;;;;4984017;28;20477;-68
2021/09/24 03:23:36;;;;;;;38.35;5.38;;;;;;;;;;4983365;28;20518;-68
2021/09/24 03:26:02;;;;;;;34.67;5.28;;;;;;;;;;4983653;28;20870;-68
2021/09/24 03:28:28;;;;;;;38.47;6.40;;;;;;;;;;4982445;28;20562;-68
2021/09/24 03:30:54;;;;;;;37.20;4.07;;;;;;;;;;4982534;28;20080;-68
2021/09/24 03:33:20;;;;;;;30.23;4.03;;;;;;;;;;4982444;28;20026;-68
2021/09/24 03:35:46;;;;;;;23.88;3.70;;;;;;;;;;4981703;28;20733;-68
2021/09/24 03:38:12;;;;;;;32.13;4.25;;;13.40;99.90;;;;;;4982215;28;20065;-68
2021/09/24 03:40:38;;;;;;;30.13;4.97;;;;;;;;;;4981798;28;20058;-68
2021/09/24 03:43:04;;;;;;;23.73;3.20;;;;;;;;;;4979231;28;20402;-68
2021/09/24 03:45:30;;;;;;;26.85;3.25;;;;;;;;;;4981963;28;20031;-68
2021/09/24 03:47:56;;;;;;;26.25;3.35;;;;;;;;;;4981127;28;20121;-68
2021/09/24 03:50:24;;;;;;;31.08;3.85;;;;;;;;;;4981419;28;20125;-68
2021/09/24 03:52:49;;;;;;;46.70;4.75;;;;;;;;;;4983947;28;20518;-66
2021/09/24 03:55:15;;;;;;;38.67;3.92;;;;;;;;;;4985172;28;20034;-66
2021/09/24 03:57:41;;;;;;;21.38;3.42;;;12.20;99.90;;;;;;4980034;28;20153;-66
2021/09/24 04:00:07;;;;;;;32.10;4.03;;;;;;;;;;4987945;28;20042;-65
2021/09/24 04:02:38;;;;;;;31.92;3.65;;;;;;;;;;4977571;28;20536;-65
2021/09/24 04:05:04;;;;;;;36.13;4.65;;;;;;;;;;4981779;28;20026;-66
2021/09/24 04:07:29;;;;;;;38.25;5.80;;;11.90;99.90;;;;;;4982157;28;20533;-65
2021/09/24 04:09:55;;;;;;;27.77;3.50;;;;;;;;;;4982323;28;20141;-66
2021/09/24 04:12:21;;;;;;;25.80;3.78;;;;;;;;;;4981012;28;20446;-65
2021/09/24 04:14:47;;;;;;;26.52;3.63;;;;;;;;;;4982395;28;20025;-65
2021/09/24 04:17:13;;;;;;;35.85;4.55;;;;;;;;;;4981415;28;20030;-65
2021/09/24 04:19:39;;;;;;;20.33;4.22;;;;;;;;;;4981756;28;20057;-65
2021/09/24 04:22:04;;;;;;;24.92;3.53;;;11.90;99.90;;;;;;4981610;28;20638;-65
2021/09/24 04:24:31;;;;;;;26.15;3.83;;;;;;;;;;4981772;28;20831;-65
2021/09/24 04:26:58;;;;;;;42.70;6.95;;;;;;;;;;4981894;28;20050;-68
2021/09/24 04:29:24;;;;;;;23.75;3.90;;;;;;;;;;4981543;28;20795;-68
2021/09/24 04:31:50;;;;;;;39.25;6.05;;;;;;;;;;4981962;28;20040;-68
2021/09/24 04:34:16;;;;;;;34.80;3.38;;;;;;;;;;4981398;28;20034;-68
2021/09/24 04:36:42;;;;;;;36.97;4.07;;;;;;;;;;4981891;28;20109;-68
2021/09/24 04:39:08;;;;;;;35.65;4.68;;;;;;;;;;4981442;28;20131;-68
2021/09/24 04:41:34;;;;;;;27.73;3.50;;;;;;;;;;4980774;28;20030;-68
2021/09/24 04:44:00;;;;;;;45.10;4.88;;;;;;;;;;4982173;28;20494;-68
2021/09/24 04:46:25;;;;;;;33.75;4.05;;;11.30;99.90;;;;;;4981948;28;20819;-68
2021/09/24 04:48:51;;;;;;;21.10;3.40;;;;;;;;;;4981236;28;20038;-68
2021/09/24 04:51:17;;;;;;;29.00;3.65;;;;;;;;;;4981896;28;20022;-68
2021/09/24 04:53:43;;;;;;;29.67;3.63;;;;;;;;;;4981298;28;20785;-68
2021/09/24 04:56:09;;;;;;;32.03;3.95;;;;;;;;;;4981412;28;20129;-68
2021/09/24 04:58:34;;;;;;;25.55;4.35;;;12.00;99.90;;;;;;4980872;28;20034;-68
2021/09/24 05:01:00;;;;;;;36.72;4.40;;;;;;;;;;4981044;28;20034;-68
2021/09/24 05:03:26;;;;;;;23.67;3.38;;;;;;;;;;4980843;28;20475;-68
2021/09/24 05:05:52;;;;;;;24.50;3.45;;;;;;;;;;4981196;28;20049;-68
2021/09/24 05:08:18;;;;;;;26.73;3.78;;;;;;;;;;4981099;28;20099;-70
2021/09/24 05:10:44;;;;;;;39.78;4.88;;;;;;;;;;4979203;28;20591;-68
2021/09/24 05:13:10;;;;;;;26.80;3.92;;;;;;;;;;4980705;28;20042;-67
2021/09/24 05:15:36;;;;;;;27.75;3.33;;;;;;;;;;4977175;28;20030;-68
2021/09/24 05:18:02;;;;;;;31.30;3.20;;;12.80;99.90;;;;;;4979671;28;20521;-67
2021/09/24 05:20:29;;;;;;;28.13;2.97;;;;;;;;;;4980301;28;20061;-67
2021/09/24 05:22:55;;;;;;;31.08;5.00;;;;;;;;;;4980146;28;20732;-67
2021/09/24 05:25:22;;;;;;;31.25;4.28;;;;;;;;;;4978913;28;20041;-67
2021/09/24 05:27:48;;;;;;;34.03;4.82;;;;;;;;;;4979475;28;20918;-67
2021/09/24 05:30:14;;;;;;;29.88;4.00;;;;;;;;;;4980654;28;20412;-67
2021/09/24 05:32:40;;;;;;;32.63;5.32;;;;;;;;;;4979587;28;20034;-67
2021/09/24 05:35:06;;;;;;;36.75;3.72;;;;;;;;;;4980177;28;20193;-67
2021/09/24 05:37:32;;;;;;;35.03;3.45;;;;;;;;;;4979784;28;20041;-67
2021/09/24 05:39:58;;;;;;;31.05;3.88;;;;;;;;;;4979160;28;20117;-67
2021/09/24 05:42:24;;;;;;;26.85;2.92;;;;;;;;;;4979850;28;20034;-67
2021/09/24 05:44:50;;;;;;;27.38;3.92;;;;;;;;;;4984438;28;20031;-67
2021/09/24 05:47:16;;;;;;;32.08;3.65;;;;;;;;;;4983737;28;20037;-67
2021/09/24 05:49:42;;;;;;;29.80;4.18;;;;;;;;;;4979563;28;20596;-67
2021/09/24 05:52:08;;;;;;;30.23;3.25;;;;;;;;;;4979675;28;20038;-67
2021/09/24 05:54:33;;;;;;;33.50;3.85;;;12.80;99.90;;;;;;4979565;28;20125;-67
2021/09/24 05:56:59;;;;;;;22.90;3.50;;;;;;;;;;4977248;28;20049;-67
2021/09/24 05:59:25;;;;;;;28.58;3.55;;;;;;;;;;4973398;28;20122;-67
2021/09/24 06:01:51;;;;;;;39.15;4.07;;;12.60;99.90;;;;;;4977438;28;20042;-67
2021/09/24 06:04:18;;;;;;;41.28;3.65;;;;;;;;;;4978777;28;20060;-67
2021/09/24 06:06:44;;;;;;;29.63;4.50;;;;;;;;;;4979480;28;20053;-67
2021/09/24 06:09:10;;;;;;;27.88;4.72;;;;;;;;;;4977922;28;20113;-67
2021/09/24 06:11:36;;;;;;;26.02;3.30;;;;;;;;;;4977821;28;20066;-67
2021/09/24 06:14:02;;;;;;;26.85;4.60;;;;;;;;;;4961275;28;20068;-67
2021/09/24 06:16:28;;;;;;;27.75;4.35;;;;;;;;;;4978256;28;20039;-67
2021/09/24 06:18:54;;;;;;;26.88;4.82;;;12.80;99.90;;;;;;4978539;28;20057;-67
2021/09/24 06:21:21;;;;;;;23.77;3.85;;;;;;;;;;4979060;28;20034;-67
2021/09/24 06:23:47;;;;;;;31.67;4.10;;;;;;;;;;4976692;28;20173;-67
2021/09/24 06:26:13;;;;;;;38.92;4.43;;;;;;;;;;4979431;28;20541;-67
2021/09/24 06:28:39;;;;;;;30.50;3.92;;;12.80;99.90;;;;;;4978413;28;20034;-67
2021/09/24 06:31:05;;;;;;;32.55;5.80;;;;;;;;;;4979395;28;20034;-67
2021/09/24 06:33:31;;;;;;;35.17;4.10;;;;;;;;;;4977741;28;20038;-67
2021/09/24 06:35:57;;;;;;;19.67;3.70;;;;;;;;;;4979374;28;20023;-67
2021/09/24 06:38:23;;;;;;;29.85;4.07;;;;;;;;;;4979292;28;20125;-67
2021/09/24 06:40:49;;;;;;;23.20;4.18;;;12.50;99.90;;;;;;4978588;28;20313;-67
2021/09/24 06:43:15;;;;;;;29.83;4.18;;;;;;;;;;4979306;28;20494;-67
2021/09/24 06:45:41;;;;;;;25.30;4.25;;;;;;;;;;4979647;28;20465;-67
2021/09/24 06:48:07;;;;;;;23.92;3.72;;;;;;;;;;4978121;28;20022;-67
2021/09/24 06:50:33;;;;;;;29.83;4.07;;;;;;;;;;4979270;28;20947;-68
2021/09/24 06:52:59;;;;;;;29.80;4.20;;;;;;;;;;4976903;28;20056;-67
2021/09/24 06:55:25;;;;;;;30.88;4.60;;;;;;;;;;4979208;28;20077;-67
2021/09/24 06:57:51;;;;;;;36.25;4.57;;;;;;;;;;4978860;28;20034;-67
2021/09/24 07:00:17;;;;;;;23.80;4.78;;;;;;;;;;4978725;28;20479;-67
2021/09/24 07:02:43;;;;;;;33.40;5.30;;;;;;;;;;4978801;28;20097;-67
2021/09/24 07:05:09;;;;;;;30.08;4.20;;;13.20;99.90;;;;;;4978600;28;20117;-67
2021/09/24 07:07:35;;;;;;;23.85;5.28;;;;;;;;;;4978592;28;20134;-67
2021/09/24 07:10:01;;;;;;;26.80;4.13;;;;;;;;;;4976646;28;20899;-67
2021/09/24 07:12:27;;;;;;;29.00;5.63;;;14.20;99.90;;;;;;4976268;28;20808;-67
2021/09/24 07:14:52;;;;;;;28.10;4.45;;;13.90;99.90;;;;;;4976496;28;20037;-67
2021/09/24 07:17:18;;;;;;;34.58;6.63;;;;;;;;;;4976566;28;20430;-67
2021/09/24 07:19:44;;;;;;;37.78;5.45;;;;;;;;;;4977981;28;20110;-67
2021/09/24 07:22:10;;;;;;;29.35;5.25;;;14.10;99.90;;;;;;4978230;28;20509;-67
2021/09/24 07:24:35;;;;;;;36.90;4.63;;;15.00;99.90;;;;;;4975741;28;20077;-68
2021/09/24 07:27:01;;;;;;;27.73;4.70;;;;;;;;;;4978488;28;21073;-67
2021/09/24 07:29:26;;;;;;;29.98;4.38;;;15.00;99.90;;;;;;4979232;28;20045;-68
2021/09/24 07:31:52;;;;;;;25.35;3.80;;;15.50;99.90;;;;;;4979150;28;20034;-67
2021/09/24 07:34:18;;;;;;;29.67;3.58;;;16.00;99.90;;;;;;4979468;28;20479;-67
2021/09/24 07:36:43;;;;;;;20.63;3.35;;;15.80;99.90;;;;;;4983146;28;20042;-68
2021/09/24 07:39:08;;;;;;;19.90;3.58;;;16.70;99.90;;;;;;4981137;28;20042;-67
2021/09/24 07:41:34;;;;;;;20.65;3.60;;;16.70;99.90;;;;;;4981763;28;20050;-67
2021/09/24 07:44:00;;;;;;;29.45;3.45;;;17.10;99.90;;;;;;4982092;28;20113;-67
2021/09/24 07:46:26;;;;;;;25.95;3.53;;;17.20;99.90;;;;;;4982526;28;20048;-67
2021/09/24 07:48:51;;;;;;;25.75;4.38;;;17.30;99.90;;;;;;4981649;28;20403;-67
2021/09/24 07:51:17;;;;;;;23.23;4.13;;;16.60;99.90;;;;;;4983692;28;20472;-67
2021/09/24 07:53:42;;;;;;;24.10;3.17;;;16.30;99.90;;;;;;4988007;28;20041;-67
2021/09/24 07:56:08;;;;;;;21.73;3.03;;;15.90;99.90;;;;;;4980944;28;20038;-67
2021/09/24 07:58:36;;;;;;;23.88;3.50;;;;;;;;;;4982362;28;20042;-68
2021/09/24 08:01:01;;;;;;;31.15;4.72;;;16.50;99.90;;;;;;4981880;28;20060;-67
2021/09/24 08:03:26;;;;;;;45.92;11.13;;;16.10;99.90;;;;;;4965247;28;20034;-67
2021/09/24 08:05:52;;;;;;;31.25;4.70;;;15.30;99.90;;;;;;4982090;28;20022;-67
2021/09/24 08:08:17;;;;;;;30.17;4.25;;;15.70;99.90;;;;;;4979866;28;20034;-67
2021/09/24 08:10:43;;;;;;;22.95;5.85;;;15.80;99.90;;;;;;4982130;28;20176;-67
2021/09/24 08:13:08;;;;;;;15.55;2.85;;;15.50;99.90;;;;;;4981960;28;20512;-67
2021/09/24 08:15:35;;;;;;;17.92;2.70;;;17.10;99.90;;;;;;4981508;28;20108;-67
2021/09/24 08:18:00;;;;;;;19.23;3.38;;;17.50;99.90;;;;;;4982205;28;20045;-67
2021/09/24 08:20:26;;;;;;;24.00;3.90;;;;;;;;;;4981761;28;20037;-67
2021/09/24 08:22:52;;;;;;;16.35;3.63;;;16.40;99.90;;;;;;4982636;28;20073;-67
2021/09/24 08:25:17;;;;;;;24.73;3.70;;;16.70;99.90;;;;;;4980493;28;20054;-68
2021/09/24 08:27:43;;;;;;;29.65;4.43;;;17.20;99.90;;;;;;4980870;28;20042;-68
2021/09/24 08:30:08;;;;;;;23.25;3.65;;;16.40;99.90;;;;;;4979898;28;20034;-68
2021/09/24 08:32:37;;;;;;;27.60;3.58;;;16.60;99.90;;;;;;4981157;28;20751;-66
2021/09/24 08:35:02;;;;;;;21.50;3.05;;;17.00;99.90;;;;;;4981671;28;20505;-68
2021/09/24 08:37:27;;;;;;;32.75;4.82;;;17.10;99.90;;;;;;4980136;28;20030;-68
2021/09/24 08:39:53;;;;;;;27.67;3.63;;;17.00;99.90;;;;;;4980527;28;20445;-68
2021/09/24 08:42:18;;;;;;;22.58;3.25;;;17.30;99.90;;;;;;4980274;28;20506;-68
2021/09/24 08:44:44;;;;;;;24.13;4.05;;;17.40;99.90;;;;;;4979771;28;20113;-68
2021/09/24 08:47:09;;;;;;;18.50;3.70;;;17.10;99.90;;;;;;4980407;28;20030;-68
2021/09/24 08:49:35;;;;;;;25.25;4.15;;;17.30;99.90;;;;;;4980918;28;20403;-68
2021/09/24 08:52:00;;;;;;;25.42;4.55;;;17.70;99.90;;;;;;4981416;28;20035;-68
2021/09/24 08:54:26;;;;;;;20.88;4.03;;;18.00;99.90;;;;;;4981491;28;20562;-69
2021/09/24 08:56:51;;;;;;;23.67;3.75;;;17.80;99.90;;;;;;4980874;28;20056;-67
2021/09/24 08:59:17;;;;;;;26.33;4.97;;;17.50;99.90;;;;;;4980781;28;20045;-67
2021/09/24 09:01:42;;;;;;;18.38;3.70;;;18.10;99.90;;;;;;4980531;28;20117;-67
2021/09/24 09:04:08;;;;;;;21.55;3.15;;;18.10;99.90;;;;;;4980575;28;20121;-69
2021/09/24 09:06:33;;;;;;;21.75;3.17;;;18.30;99.90;;;;;;4980871;28;20037;-68
2021/09/24 09:08:59;;;;;;;28.50;4.35;;;18.40;99.90;;;;;;4979895;28;20042;-67
2021/09/24 09:11:24;;;;;;;22.50;3.38;;;18.30;99.90;;;;;;4981305;28;20038;-67
2021/09/24 09:13:50;;;;;;;20.88;3.90;;;18.60;99.90;;;;;;4980335;28;20038;-67
2021/09/24 09:16:15;;;;;;;21.90;3.30;;;17.90;99.90;;;;;;4979434;28;20114;-67
2021/09/24 09:18:41;;;;;;;27.73;3.40;;;;;;;;;;4980057;28;20042;-67
2021/09/24 09:21:07;;;;;;;32.72;4.13;;;18.90;99.90;;;;;;4978091;28;20124;-67
2021/09/24 09:23:32;;;;;;;24.38;3.00;;;18.90;99.90;;;;;;4980056;28;20494;-68
2021/09/24 09:25:58;;;;;;;20.50;3.20;;;18.60;99.90;;;;;;4979573;28;20121;-67
2021/09/24 09:28:24;;;;;;;23.52;3.58;;;;;;;;;;4978437;28;20058;-68
2021/09/24 09:30:50;;;;;;;28.83;4.10;;;;;;;;;;4979773;28;20111;-67
2021/09/24 09:33:16;;;;;;;18.55;3.00;;;;;;;;;;4979066;28;20176;-68
2021/09/24 09:35:42;;;;;;;19.83;2.63;;;;;;;;;;4979965;28;20038;-68
2021/09/24 09:38:08;;;;;;;15.48;3.17;;;;;;;;;;4978807;28;20034;-68
2021/09/24 09:40:35;;;;;;;20.30;4.63;;;;;;;;;;4978121;28;20038;-68
2021/09/24 09:43:01;;;;;;;17.45;2.53;;;;;;;;;;4979631;28;20042;-68
2021/09/24 09:45:28;;;;;;;20.88;2.78;;;;;;;;;;4977219;28;20034;-69
2021/09/24 09:47:54;;;;;;;15.63;2.42;;;;;;;;;;4980092;28;20486;-68
2021/09/24 09:50:20;;;;;;;17.02;2.67;;;;;;;;;;4979377;28;20018;-68
2021/09/24 09:52:46;;;;;;;13.13;2.55;;;;;;;;;;4979495;28;20112;-68
2021/09/24 09:55:12;;;;;;;12.02;2.60;;;;;;;;;;4979397;28;20034;-68
2021/09/24 09:57:38;;;;;;;19.63;3.30;;;;;;;;;;4978394;28;20045;-68
2021/09/24 10:00:04;;;;;;;16.25;3.30;;;;;;;;;;4979291;28;20387;-67
2021/09/24 10:02:34;;;;;;;23.80;3.88;;;;;;;;;;4984843;28;20039;-67
2021/09/24 10:05:01;;;;;;;14.88;2.72;;;;;;;;;;4980312;28;20678;-67
2021/09/24 10:07:27;;;;;;;24.38;5.72;;;;;;;;;;4977877;28;20068;-67
2021/09/24 10:09:56;;;;;;;21.58;3.95;;;;;;;;;;4978981;28;20561;-67
2021/09/24 10:12:22;;;;;;;14.88;2.70;;;;;;;;;;4977439;28;20057;-68
2021/09/24 10:14:48;;;;;;;13.93;2.70;;;;;;;;;;4979231;28;20909;-68
2021/09/24 10:17:14;;;;;;;17.02;2.25;;;18.30;99.90;;;;;;4978387;28;20677;-68
2021/09/24 10:19:40;;;;;;;13.52;2.58;;;;;;;;;;4979321;28;20058;-69
2021/09/24 10:22:06;;;;;;;11.70;2.10;;;;;;;;;;4978262;28;20142;-67
2021/09/24 10:24:32;;;;;;;11.05;2.15;;;;;;;;;;4979157;28;20045;-68
2021/09/24 10:26:58;;;;;;;10.45;2.20;;;;;;;;;;4976903;28;20077;-68
2021/09/24 10:29:24;;;;;;;14.93;2.60;;;;;;;;;;4977981;28;20034;-67
2021/09/24 10:31:50;;;;;;;17.30;3.97;;;;;;;;;;4979263;28;20034;-68
2021/09/24 10:34:16;;;;;;;15.10;1.90;;;;;;;;;;4978367;28;20517;-67
2021/09/24 10:36:42;;;;;;;15.35;1.98;;;17.30;99.90;;;;;;4976877;28;20038;-67
2021/09/24 10:39:08;;;;;;;8.32;1.98;;;;;;;;;;4977292;28;20026;-67
2021/09/24 10:41:34;;;;;;;15.90;2.30;;;;;;;;;;4978473;28;20038;-67
2021/09/24 10:44:00;;;;;;;18.27;2.70;;;;;;;;;;4978629;28;20158;-67
2021/09/24 10:46:26;;;;;;;9.82;2.22;;;;;;;;;;4978367;28;20158;-67
2021/09/24 10:48:52;;;;;;;10.95;1.95;;;;;;;;;;4976770;28;20059;-67
2021/09/24 10:51:18;;;;;;;11.93;3.85;;;;;;;;;;4977965;28;20435;-67
2021/09/24 10:53:46;;;;;;;11.10;2.33;;;;;;;;;;4977851;28;20523;-67
2021/09/24 10:56:12;;;;;;;12.45;2.50;;;;;;;;;;4978271;28;20886;-67
2021/09/24 10:58:38;;;;;;;6.13;2.17;;;;;;;;;;4977053;28;21066;-67
2021/09/24 11:01:05;;;;;;;11.32;2.30;;;;;;;;;;4978047;28;20043;-67
2021/09/24 11:03:31;;;;;;;10.43;2.38;;;;;;;;;;4977996;28;20022;-67
2021/09/24 11:05:57;;;;;;;8.50;1.80;;;;;;;;;;4977379;28;20443;-67
2021/09/24 11:08:23;;;;;;;10.85;1.30;;;;;;;;;;4978032;28;20122;-67
2021/09/24 11:10:49;;;;;;;12.35;2.30;;;;;;;;;;4981488;28;20038;-68
2021/09/24 11:13:15;;;;;;;11.30;2.10;;;;;;;;;;4981404;28;20869;-67
2021/09/24 11:15:41;;;;;;;6.35;1.33;;;;;;;;;;4982224;28;20185;-67
2021/09/24 11:18:07;;;;;;;6.72;1.58;;;;;;;;;;4981219;28;20038;-67
2021/09/24 11:20:33;;;;;;;9.75;1.30;;;;;;;;;;4981377;28;20398;-67
2021/09/24 11:22:59;;;;;;;4.82;1.55;;;;;;;;;;4981919;28;20583;-67
2021/09/24 11:25:24;;;;;;;8.48;1.20;;;16.90;99.90;;;;;;4979719;28;20061;-67
2021/09/24 11:27:50;;;;;;;6.72;1.20;;;;;;;;;;4981243;28;20828;-67
2021/09/24 11:30:16;;;;;;;3.70;1.20;;;;;;;;;;4981449;28;20084;-67
2021/09/24 11:32:42;;;;;;;5.47;1.30;;;;;;;;;;4981638;28;20034;-67
2021/09/24 11:35:08;;;;;;;7.10;1.40;;;;;;;;;;4981570;28;20685;-67
2021/09/24 11:37:34;;;;;;;9.23;1.42;;;;;;;;;;4980996;28;20070;-68
2021/09/24 11:40:00;;;;;;;8.93;1.40;;;;;;;;;;4982393;28;20149;-68
2021/09/24 11:42:26;;;;;;;7.55;1.17;;;;;;;;;;4981782;28;20034;-68
2021/09/24 11:44:52;;;;;;;3.30;0.90;;;;;;;;;;4981591;28;20104;-68
2021/09/24 11:47:21;;;;;;;5.18;0.90;;;;;;;;;;4980041;28;20038;-67
2021/09/24 11:49:47;;;;;;;7.82;1.40;;;;;;;;;;4981450;28;20045;-67
2021/09/24 11:52:13;;;;;;;6.07;1.30;;;;;;;;;;4983072;28;20487;-67
2021/09/24 11:54:39;;;;;;;8.90;1.02;;;;;;;;;;4981202;28;20573;-67
2021/09/24 11:57:05;;;;;;;9.00;1.80;;;;;;;;;;4981847;28;20857;-67
2021/09/24 11:59:31;;;;;;;11.40;1.70;;;;;;;;;;4982313;28;20033;-67
2021/09/24 12:01:57;;;;;;;8.20;1.60;;;;;;;;;;4979994;28;20077;-67
2021/09/24 12:04:23;;;;;;;9.63;1.73;;;;;;;;;;4978412;28;20225;-67
2021/09/24 12:06:52;;;;;;;15.35;1.77;;;;;;;;;;4978485;28;20045;-67
2021/09/24 12:09:22;;;;;;;9.75;1.50;;;;;;;;;;4979990;28;20585;-67
2021/09/24 12:11:48;;;;;;;12.90;1.70;;;;;;;;;;4979957;28;20042;-67
2021/09/24 12:14:16;;;;;;;9.38;1.15;;;;;;;;;;4976744;28;20871;-67
2021/09/24 12:16:42;;;;;;;4.78;1.00;;;;;;;;;;4978577;28;20046;-67
2021/09/24 12:19:09;;;;;;;8.75;1.48;;;;;;;;;;4979590;28;20034;-67
2021/09/24 12:21:35;;;;;;;8.40;1.92;;;;;;;;;;4980994;28;20633;-67
2021/09/24 12:24:01;;;;;;;9.57;2.58;;;;;;;;;;4981840;28;20041;-67
2021/09/24 12:26:27;;;;;;;5.65;1.52;;;;;;;;;;4979977;28;20034;-68
2021/09/24 12:28:53;;;;;;;6.78;1.15;;;;;;;;;;4980140;28;20538;-68
2021/09/24 12:31:19;;;;;;;7.93;1.70;;;;;;;;;;4981960;28;20049;-68
2021/09/24 12:33:45;;;;;;;22.73;2.15;;;;;;;;;;4981238;28;20132;-68
2021/09/24 12:36:11;;;;;;;12.30;2.30;;;;;;;;;;4980367;28;20034;-69
2021/09/24 12:38:37;;;;;;;13.27;1.80;;;;;;;;;;4980577;28;20026;-72
2021/09/24 12:41:03;;;;;;;7.38;2.20;;;;;;;;;;4980108;28;20038;-69
2021/09/24 12:43:29;;;;;;;10.65;1.45;;;;;;;;;;4980899;28;20109;-69
2021/09/24 12:45:55;;;;;;;9.15;1.20;;;;;;;;;;4981126;28;20046;-69
2021/09/24 12:48:21;;;;;;;4.15;1.05;;;;;;;;;;4981182;28;20026;-69
2021/09/24 12:50:48;;;;;;;3.85;1.00;;;;;;;;;;4980282;28;20038;-69
2021/09/24 12:53:19;;;;;;;5.22;1.17;;;;;;;;;;4979470;28;20475;-70
2021/09/24 12:55:45;;;;;;;6.93;1.20;;;;;;;;;;4981150;28;20053;-70
2021/09/24 12:58:11;;;;;;;5.30;1.77;;;;;;;;;;4978732;28;20030;-69
2021/09/24 13:00:37;;;;;;;8.65;1.50;;;;;;;;;;4980936;28;20057;-69
2021/09/24 13:03:03;;;;;;;8.73;1.27;;;;;;;;;;4978325;28;20120;-73
2021/09/24 13:05:29;;;;;;;5.30;1.20;;;;;;;;;;4962390;28;20053;-72
2021/09/24 13:07:55;;;;;;;9.90;1.23;;;;;;;;;;4980283;28;20038;-72
2021/09/24 13:10:21;;;;;;;10.23;1.95;;;;;;;;;;4978719;28;20092;-71
2021/09/24 13:12:47;;;;;;;5.55;1.23;;;;;;;;;;4979213;28;20865;-71
2021/09/24 13:15:15;;;;;;;3.20;1.20;;;;;;;;;;4980474;28;20070;-71
2021/09/24 13:17:41;;;;;;;7.07;1.40;;;;;;;;;;4978384;28;20748;-70
2021/09/24 13:20:07;;;;;;;7.07;1.45;;;;;;;;;;4980093;28;20554;-68
2021/09/24 13:22:34;;;;;;;4.60;1.30;;;;;;;;;;4976888;28;20641;-68
2021/09/24 13:25:00;;;;;;;9.15;1.60;;;;;;;;;;4976098;28;20042;-68
2021/09/24 13:27:26;;;;;;;5.22;1.05;;;;;;;;;;4978645;28;20023;-69
2021/09/24 13:29:52;;;;;;;6.05;1.30;;;;;;;;;;4980112;28;20487;-69
2021/09/24 13:32:18;;;;;;;5.88;1.20;;;;;;;;;;4979158;28;20119;-68
2021/09/24 13:34:44;;;;;;;6.85;1.50;;;;;;;;;;4977903;28;20376;-68
2021/09/24 13:37:10;;;;;;;6.07;1.35;;;;;;;;;;4979839;28;20038;-68
2021/09/24 13:39:36;;;;;;;3.72;1.42;;;;;;;;;;4979160;28;20045;-68
2021/09/24 13:42:02;;;;;;;7.03;2.00;;;;;;;;;;4977878;28;20045;-68
2021/09/24 13:44:28;;;;;;;4.40;1.23;;;;;;;;;;4979909;28;20042;-68
2021/09/24 13:46:54;;;;;;;5.10;1.42;;;18.40;99.90;;;;;;4978825;28;20081;-68
2021/09/24 13:49:20;;;;;;;8.45;1.60;;;;;;;;;;4978893;28;20030;-68
2021/09/24 13:51:46;;;;;;;9.90;1.50;;;;;;;;;;4979453;28;20049;-68
2021/09/24 13:54:12;;;;;;;3.90;1.52;;;;;;;;;;4979426;28;20046;-68
2021/09/24 13:56:38;;;;;;;6.93;1.70;;;;;;;;;;4979254;28;20030;-68